This is the latest recevied weather packets stored in our database for station/object OE6JVE-13. If no packets are shown the sender has not sent any weather packets the latest 10 day(s).
| Time | Temp. | Humidity | Pressure | Rain* | Wind** | Luminosity | Snow |
|---|---|---|---|---|---|---|---|
| 1777968335 | 21.67° C | 30% | 1003.9 hPa | 0 mm | - | - | - |
| 1777967743 | 21.67° C | 30% | 1004.1 hPa | 0 mm | - | - | - |
| 1777967151 | 21.67° C | 31% | 1004 hPa | 0 mm | - | - | - |
| 1777966559 | 21.11° C | 31% | 1004.1 hPa | 0 mm | - | - | - |
| 1777965967 | 20.56° C | 32% | 1004.1 hPa | 0 mm | - | - | - |
| 1777965375 | 20° C | 33% | 1004.1 hPa | 0 mm | - | - | - |
| 1777964717 | 19.44° C | 38% | 1004.2 hPa | 0 mm | - | - | - |
| 1777964125 | 18.33° C | 41% | 1004.3 hPa | 0 mm | - | - | - |
| 1777963533 | 18.89° C | 36% | 1004.3 hPa | 0 mm | - | - | - |
| 1777962941 | 18.89° C | 35% | 1004.2 hPa | 0 mm | - | - | - |
| 1777962348 | 19.44° C | 36% | 1004.2 hPa | 0 mm | - | - | - |
| 1777961756 | 19.44° C | 36% | 1004.3 hPa | 0 mm | - | - | - |
| 1777961164 | 18.89° C | 37% | 1004.3 hPa | 0 mm | - | - | - |
| 1777960572 | 18.33° C | 38% | 1004.3 hPa | 0 mm | - | - | - |
| 1777959980 | 17.22° C | 46% | 1004.2 hPa | 0 mm | - | - | - |
| 1777959322 | 17.22° C | 47% | 1004.1 hPa | 0 mm | - | - | - |
| 1777958730 | 16.67° C | 46% | 1004.2 hPa | 0 mm | - | - | - |
| 1777958138 | 16.11° C | 49% | 1004.1 hPa | 0 mm | - | - | - |
| 1777957546 | 13.33° C | 60% | 1004.1 hPa | 0 mm | - | - | - |
| 1777956954 | 12.22° C | 66% | 1004.1 hPa | 0 mm | - | - | - |
| 1777956362 | 11.67° C | 66% | 1004.2 hPa | 0 mm | - | - | - |
| 1777955770 | 11.67° C | 64% | 1004.2 hPa | 0 mm | - | - | - |
| 1777955178 | 11.67° C | 62% | 1004.3 hPa | 0 mm | - | - | - |
| 1777954520 | 12.22° C | 58% | 1004.4 hPa | 0 mm | - | - | - |
| 1777953928 | 12.78° C | 57% | 1004.4 hPa | 0 mm | - | - | - |
* Rain latest hour (hover to see other rain measurements)
** Current wind speed in m/s (hover to see current wind gust speed)